Time;durP1;ratioP1;P1;durP2;ratioP2;P2;SDS_P1;SDS_P2;PMS_P1;PMS_P2;Temp;Humidity;BMP_temperature;BMP_pressure;BME280_temperature;BME280_humidity;BME280_pressure;Samples;Min_cycle;Max_cycle;Signal;HPM_P1;HPM_P2
2023/06/02 00:01:00;;;;;;;11.45;4.38;;;;;;;22.00;50.93;98390.19;5112676;28;20084;-45
2023/06/02 00:03:31;;;;;;;9.73;4.22;;;;;;;22.10;50.75;98390.06;5113109;28;20026;-45
2023/06/02 00:05:59;;;;;;;13.90;4.18;;;;;;;22.27;50.80;98389.66;5112224;28;20059;-45
2023/06/02 00:08:28;;;;;;;8.63;3.88;;;;;;;22.28;51.24;98388.59;5112704;28;20023;-45
2023/06/02 00:10:55;;;;;;;8.25;4.10;;;;;;;22.19;50.71;98387.56;5112569;28;20020;-45
2023/06/02 00:13:21;;;;;;;7.78;3.97;;;;;;;22.19;50.42;98386.78;5112759;28;20045;-45
2023/06/02 00:15:47;;;;;;;6.75;4.68;;;;;;;22.19;50.39;98378.75;5112738;28;20651;-45
2023/06/02 00:18:13;;;;;;;13.23;4.40;;;;;;;22.14;49.87;98383.09;5112545;28;20073;-45
2023/06/02 00:20:39;;;;;;;12.18;4.40;;;;;;;22.05;50.48;98379.44;5094135;28;20489;-45
2023/06/02 00:23:08;;;;;;;13.38;5.40;;;;;;;22.08;50.93;98386.88;5112366;28;20016;-45
2023/06/02 00:25:35;;;;;;;7.50;4.78;;;;;;;22.16;51.32;98390.81;5112289;28;20023;-45
2023/06/02 00:28:01;;;;;;;12.52;4.43;;;;;;;22.12;51.21;98387.13;5112341;28;20024;-45
2023/06/02 00:30:27;;;;;;;21.30;5.05;;;;;;;22.04;51.95;98385.88;5112290;28;20027;-45
2023/06/02 00:32:54;;;;;;;9.55;4.82;;;;;;;22.05;52.28;98384.78;5110935;28;20016;-45
2023/06/02 00:35:20;;;;;;;13.10;4.53;;;;;;;22.05;52.22;98382.09;5111973;28;20043;-45
2023/06/02 00:37:46;;;;;;;16.85;4.68;;;;;;;22.06;51.86;98389.06;5112230;28;20087;-45
2023/06/02 00:40:12;;;;;;;13.40;5.30;;;;;;;21.98;52.02;98387.00;5112201;28;20031;-45
2023/06/02 00:42:38;;;;;;;10.48;5.40;;;;;;;21.81;52.08;98387.44;5077116;28;20058;-45
2023/06/02 00:45:04;;;;;;;8.73;3.88;;;;;;;21.71;51.83;98387.50;5112185;28;20119;-45
2023/06/02 00:47:30;;;;;;;13.52;4.90;;;;;;;21.69;51.20;98385.13;5112355;28;20401;-45
2023/06/02 00:49:57;;;;;;;15.52;4.80;;;;;;;21.71;51.20;98380.31;5093841;28;20027;-45
2023/06/02 00:52:23;;;;;;;10.68;4.55;;;;;;;21.60;51.37;98384.13;5110878;28;20385;-45
2023/06/02 00:54:49;;;;;;;7.55;5.10;;;;;;;21.46;52.19;98383.19;5077010;28;20028;-45
2023/06/02 00:57:16;;;;;;;10.65;4.47;;;;;;;21.33;52.77;98380.03;5112139;28;20022;-45
2023/06/02 00:59:43;;;;;;;6.90;3.92;;;;;;;21.28;52.49;98387.28;5112004;28;20031;-45
2023/06/02 01:02:10;;;;;;;13.40;5.15;;;;;;;21.28;52.91;98374.72;5112059;28;20149;-45
2023/06/02 01:04:40;;;;;;;7.82;4.05;;;;;;;21.34;52.13;98375.50;5111930;28;20028;-45
2023/06/02 01:07:08;;;;;;;6.60;3.65;;;;;;;21.39;52.38;98374.66;5111959;28;20115;-45
2023/06/02 01:09:35;;;;;;;8.27;4.20;;;;;;;21.35;52.29;98371.75;5076857;28;20015;-45
2023/06/02 01:12:02;;;;;;;6.15;3.95;;;;;;;21.34;52.19;98370.16;5110541;28;20096;-45
2023/06/02 01:14:28;;;;;;;10.60;4.00;;;;;;;21.33;53.06;98374.69;5093632;28;20031;-45
2023/06/02 01:16:54;;;;;;;14.73;5.05;;;;;;;21.44;52.98;98369.31;5110489;28;20024;-45
2023/06/02 01:19:26;;;;;;;10.98;4.82;;;;;;;21.50;52.33;98365.53;5095799;28;20030;-45
2023/06/02 01:22:01;;;;;;;11.68;4.60;;;;;;;21.52;52.17;98368.72;5098517;28;20119;-45
2023/06/02 01:24:29;;;;;;;;;;;;;;;21.49;52.42;98363.91;5116269;28;20042;-45
2023/06/02 01:26:55;;;;;;;10.05;5.15;;;;;;;21.33;53.11;98363.22;5115721;28;19949;-45
2023/06/02 01:29:21;;;;;;;15.02;5.10;;;;;;;21.00;53.66;98360.22;5114383;28;20028;-45
2023/06/02 01:31:52;;;;;;;18.20;4.78;;;;;;;20.80;54.79;98355.81;5097300;28;20044;-45
2023/06/02 01:34:32;;;;;;;18.00;5.13;;;;;;;20.76;55.27;98362.78;5096978;28;20040;-45
2023/06/02 01:37:00;;;;;;;15.13;4.68;;;;;;;20.75;55.24;98361.97;5097209;28;20032;-45
2023/06/02 01:39:28;;;;;;;14.23;5.30;;;;;;;20.91;55.16;98357.34;5115389;28;20035;-45
2023/06/02 01:41:55;;;;;;;9.60;4.65;;;;;;;20.91;55.01;98359.25;5115327;28;20024;-45
2023/06/02 01:44:22;;;;;;;11.00;4.65;;;;;;;20.90;54.84;98357.63;5115395;28;20093;-45
2023/06/02 01:46:48;;;;;;;9.13;5.03;;;;;;;20.93;55.13;98365.88;5113991;28;20019;-45
2023/06/02 01:49:15;;;;;;;13.65;4.88;;;;;;;20.91;55.54;98365.38;5115311;28;20015;-45
2023/06/02 01:51:41;;;;;;;18.15;16.17;;;;;;;20.74;56.04;98368.41;5115426;28;20027;-45
2023/06/02 01:54:07;;;;;;;19.63;6.90;;;;;;;20.70;56.51;98364.66;5096861;28;20393;-45
2023/06/02 01:56:33;;;;;;;15.73;5.85;;;;;;;20.77;55.96;98359.03;5113863;28;20027;-45
2023/06/02 01:58:58;;;;;;;11.77;5.30;;;;;;;20.67;56.11;98359.09;5113807;28;20027;-45
2023/06/02 02:01:27;;;;;;;7.85;4.65;;;;;;;20.60;56.28;98363.91;5113778;28;20020;-45
2023/06/02 02:03:53;;;;;;;10.15;5.65;;;;;;;20.52;56.46;98359.91;5115057;28;20138;-45
2023/06/02 02:06:29;;;;;;;15.57;6.35;;;;;;;20.40;56.95;98360.22;5113963;28;20016;-45
2023/06/02 02:08:59;;;;;;;20.70;5.30;;;;;;;20.46;56.96;98359.13;5114856;28;20035;-45
2023/06/02 02:11:28;;;;;;;10.57;4.47;;;;;;;20.42;56.87;98354.63;5114804;28;20047;-45
2023/06/02 02:13:57;;;;;;;5.75;4.28;;;;;;;20.39;56.92;98353.31;5114735;28;20023;-45
2023/06/02 02:16:22;;;;;;;5.40;4.50;;;;;;;20.31;57.10;98356.53;5114798;28;20106;-45
2023/06/02 02:18:51;;;;;;;12.40;5.75;;;;;;;20.17;57.64;98353.66;5114766;28;20106;-45
2023/06/02 02:21:17;;;;;;;8.70;5.35;;;;;;;20.05;57.88;98353.94;5114611;28;20489;-50
2023/06/02 02:23:42;;;;;;;16.23;7.95;;;;;;;19.93;58.35;98356.09;5114631;28;20045;-45
2023/06/02 02:26:08;;;;;;;11.65;5.03;;;;;;;19.85;58.46;98359.31;5114598;28;20457;-45
2023/06/02 02:28:34;;;;;;;15.18;5.60;;;;;;;19.74;58.95;98354.00;5114836;28;20103;-45
2023/06/02 02:30:59;;;;;;;15.95;6.50;;;;;;;19.70;59.69;98360.13;5113968;28;20020;-45
2023/06/02 02:33:25;;;;;;;21.45;6.47;;;;;;;19.60;60.17;98354.78;5114504;28;20111;-45
2023/06/02 02:35:53;;;;;;;14.80;5.00;;;;;;;19.55;60.30;98358.25;5109398;28;20404;-45
2023/06/02 02:38:19;;;;;;;13.10;5.43;;;;;;;19.65;60.23;98352.91;5094026;28;20367;-45
2023/06/02 02:40:45;;;;;;;13.10;4.93;;;;;;;19.64;60.08;98354.00;5087579;28;20085;-45
2023/06/02 02:43:11;;;;;;;8.35;4.43;;;;;;;19.58;60.12;98352.41;5092530;28;20498;-45
2023/06/02 02:45:37;;;;;;;13.13;4.88;;;;;;;19.54;60.05;98362.00;5093991;28;20032;-45
2023/06/02 02:48:03;;;;;;;6.63;4.40;;;;;;;19.54;59.99;98356.66;5089623;28;20028;-45
2023/06/02 02:50:29;;;;;;;11.57;5.22;;;;;;;19.52;60.30;98364.91;5084872;28;20409;-45
2023/06/02 02:52:55;;;;;;;10.32;6.82;;;;;;;19.64;60.43;98372.63;5093692;28;20024;-45
2023/06/02 02:55:21;;;;;;;6.85;5.28;;;;;;;19.55;60.24;98372.34;5093567;28;20024;-45
2023/06/02 02:57:47;;;;;;;9.48;4.47;;;;;;;19.51;60.63;98367.84;5087229;28;20059;-45
2023/06/02 03:00:13;;;;;;;11.85;4.85;;;;;;;19.53;60.43;98363.84;5093504;28;20107;-45
2023/06/02 03:02:39;;;;;;;8.60;4.93;;;;;;;19.49;60.65;98365.44;5093352;28;20032;-45
2023/06/02 03:05:06;;;;;;;8.98;5.13;;;;;;;19.50;60.70;98366.25;5089643;28;20039;-45
2023/06/02 03:07:34;;;;;;;9.27;5.13;;;;;;;19.46;60.84;98373.16;5093302;28;20099;-45
2023/06/02 03:10:00;;;;;;;14.07;5.63;;;;;;;19.51;60.93;98376.63;5093299;28;20052;-45
2023/06/02 03:12:26;;;;;;;10.75;4.57;;;;;;;19.49;60.52;98372.63;5093270;28;20021;-45
2023/06/02 03:14:51;;;;;;;15.43;5.53;;;;;;;19.39;60.88;98375.28;5093200;28;20028;-45
2023/06/02 03:17:20;;;;;;;11.52;5.30;;;;;;;19.35;61.11;98377.66;5091088;28;20069;-45
2023/06/02 03:19:45;;;;;;;8.45;4.40;;;;;;;19.35;61.13;98370.47;5093117;28;20107;-45
2023/06/02 03:22:11;;;;;;;9.23;4.22;;;;;;;19.26;60.77;98385.38;5090261;28;20455;-45
2023/06/02 03:24:37;;;;;;;5.68;4.30;;;;;;;19.09;61.16;98384.81;5085316;28;20520;-45
2023/06/02 03:27:03;;;;;;;13.20;5.47;;;;;;;18.87;61.84;98385.81;5093191;28;20024;-45
2023/06/02 03:29:29;;;;;;;17.05;5.47;;;;;;;18.79;62.22;98388.16;5092889;28;20547;-45
2023/06/02 03:31:55;;;;;;;18.60;5.65;;;;;;;18.73;63.26;98390.00;5087687;28;20027;-45
2023/06/02 03:34:22;;;;;;;16.42;6.22;;;;;;;18.73;63.33;98377.53;5091479;28;20110;-45
2023/06/02 03:36:49;;;;;;;14.55;5.43;;;;;;;18.81;63.59;98386.88;5071287;28;20060;-45
2023/06/02 03:39:15;;;;;;;11.10;4.78;;;;;;;18.85;63.63;98387.16;5091749;28;20040;-45
2023/06/02 03:41:41;;;;;;;9.38;4.15;;;;;;;18.76;63.36;98384.97;5070313;28;20028;-45
2023/06/02 03:44:06;;;;;;;11.48;4.72;;;;;;;18.65;63.55;98382.53;5089253;28;20039;-45
2023/06/02 03:46:33;;;;;;;10.48;4.78;;;;;;;18.61;63.39;98384.91;5071062;28;20394;-45
2023/06/02 03:48:59;;;;;;;8.27;4.65;;;;;;;18.55;63.92;98381.44;5071259;28;20028;-44
2023/06/02 03:51:25;;;;;;;10.18;4.78;;;;;;;18.55;63.88;98389.44;5071339;28;20447;-45
2023/06/02 03:53:51;;;;;;;10.43;5.18;;;;;;;18.54;64.03;98382.50;5087807;28;20068;-45
2023/06/02 03:56:17;;;;;;;11.40;4.72;;;;;;;18.60;64.06;98387.84;5091605;28;20028;-45
2023/06/02 03:58:42;;;;;;;12.43;5.47;;;;;;;18.63;64.24;98387.31;5092410;28;20093;-45
2023/06/02 04:01:08;;;;;;;18.20;5.95;;;;;;;18.76;64.17;98389.50;5072323;28;20035;-45
2023/06/02 04:03:37;;;;;;;11.32;5.60;;;;;;;18.71;64.37;98386.81;5070841;28;20020;-45
2023/06/02 04:06:06;;;;;;;18.33;5.82;;;;;;;18.95;64.63;98388.00;5071889;28;20028;-45
2023/06/02 04:08:33;;;;;;;15.10;5.97;;;;;;;18.91;63.42;98394.09;5092280;28;20020;-45
2023/06/02 04:10:58;;;;;;;17.40;5.93;;;;;;;18.78;63.93;98398.00;5070739;28;20029;-44
2023/06/02 04:13:24;;;;;;;24.77;7.65;;;;;;;18.54;64.67;98409.06;5092221;28;20020;-45
2023/06/02 04:15:50;;;;;;;23.70;6.85;;;;;;;18.47;65.48;98403.22;5092110;28;20031;-45
2023/06/02 04:18:16;;;;;;;20.58;5.97;;;;;;;18.56;65.47;98408.81;5073124;28;20032;-45
2023/06/02 04:20:41;;;;;;;27.10;7.65;;;;;;;18.72;64.91;98409.69;5092049;28;20119;-45
2023/06/02 04:23:07;;;;;;;15.50;6.40;;;;;;;18.82;64.25;98409.75;5071848;28;20020;-45
2023/06/02 04:25:33;;;;;;;29.38;7.47;;;;;;;18.72;64.66;98404.38;5070485;28;20468;-45
2023/06/02 04:27:58;;;;;;;42.25;9.40;;;;;;;18.93;64.53;98405.25;5088660;28;20050;-45
2023/06/02 04:30:24;;;;;;;50.60;9.20;;;;;;;19.36;63.10;98409.34;5070412;28;20086;-45
2023/06/02 04:32:50;;;;;;;32.25;8.20;;;;;;;19.66;61.90;98410.44;5087291;28;20020;-45
2023/06/02 04:35:16;;;;;;;39.05;8.95;;;;;;;19.96;60.90;98403.53;5101493;28;20036;-45
2023/06/02 04:37:44;;;;;;;50.92;9.05;;;;;;;20.11;60.28;98408.03;5110912;28;20043;-45
2023/06/02 04:40:10;;;;;;;16.88;6.47;;;;;;;20.38;59.20;98402.34;5112164;28;20023;-45
2023/06/02 04:42:38;;;;;;;15.43;6.05;;;;;;;20.59;58.19;98408.47;5110854;28;20028;-45
2023/06/02 04:45:16;;;;;;;16.05;6.22;;;;;;;20.27;58.99;98406.91;5112309;28;20492;-45
2023/06/02 04:47:42;;;;;;;9.45;5.05;;;;;;;20.31;59.48;98415.97;5112226;28;20024;-45
2023/06/02 04:50:09;;;;;;;18.40;7.00;;;;;;;20.69;58.82;98412.97;5093820;28;20024;-45
2023/06/02 04:52:38;;;;;;;19.50;6.18;;;;;;;21.31;56.73;98418.78;5113228;28;20030;-45
2023/06/02 04:55:07;;;;;;;21.95;6.40;;;;;;;21.63;55.65;98412.13;5097974;28;20023;-45
2023/06/02 04:57:33;;;;;;;27.75;6.70;;;;;;;21.65;54.57;98418.81;5114970;28;20023;-45
2023/06/02 04:59:58;;;;;;;24.67;6.82;;;;;;;21.85;54.90;98414.38;5114982;28;20084;-45
2023/06/02 05:02:24;;;;;;;12.40;6.03;;;;;;;22.45;52.35;98417.53;5116218;28;20046;-45
2023/06/02 05:04:50;;;;;;;16.85;6.93;;;;;;;22.68;52.15;98418.63;5115172;28;20055;-45
2023/06/02 05:07:16;;;;;;;24.73;7.72;;;;;;;23.03;51.68;98413.91;5114830;28;20020;-45
2023/06/02 05:09:41;;;;;;;31.55;7.63;;;;;;;23.57;49.16;98416.34;5114712;28;20516;-45
2023/06/02 05:12:08;;;;;;;13.90;6.07;;;;;;;23.44;49.12;98420.56;5114701;28;20497;-45
2023/06/02 05:14:34;;;;;;;38.30;8.05;;;;;;;23.41;49.21;98416.59;5115810;28;20016;-45
2023/06/02 05:17:00;;;;;;;28.33;7.55;;;;;;;23.73;48.42;98423.84;5115785;28;20028;-45
2023/06/02 05:19:26;;;;;;;55.97;10.05;;;;;;;24.04;48.02;98412.63;5115889;28;20016;-45
2023/06/02 05:21:51;;;;;;;21.77;7.20;;;;;;;24.72;46.00;98423.72;5097529;28;20027;-45
2023/06/02 05:24:17;;;;;;;29.80;7.35;;;;;;;25.22;45.43;98420.28;5115771;28;20527;-45
2023/06/02 05:26:43;;;;;;;20.75;7.25;;;;;;;25.49;44.11;98417.50;5115774;28;20431;-45
2023/06/02 05:29:08;;;;;;;17.85;6.63;;;;;;;25.59;43.87;98423.69;5114409;28;20439;-45
2023/06/02 05:31:34;;;;;;;13.40;5.25;;;;;;;26.38;42.93;98414.19;5115606;28;20028;-45
2023/06/02 05:34:00;;;;;;;24.58;7.78;;;;;;;26.68;41.19;98420.63;5115311;28;20481;-46
2023/06/02 05:36:25;;;;;;;18.77;5.78;;;;;;;26.69;40.57;98420.31;5114262;28;20089;-45
2023/06/02 05:38:51;;;;;;;11.80;5.75;;;;;;;26.45;40.88;98420.69;5114225;28;20396;-45
2023/06/02 05:41:17;;;;;;;17.73;5.72;;;;;;;25.99;41.92;98419.22;5114218;28;20111;-45
2023/06/02 05:43:43;;;;;;;20.20;6.25;;;;;;;26.04;42.33;98429.09;5115491;28;20123;-45
2023/06/02 05:46:08;;;;;;;21.85;6.68;;;;;;;26.73;41.00;98428.56;5097141;28;20035;-45
2023/06/02 05:48:34;;;;;;;39.65;8.95;;;;;;;27.21;40.42;98432.28;5115399;28;20384;-45
2023/06/02 05:51:00;;;;;;;15.52;5.88;;;;;;;27.89;38.68;98421.81;5115261;28;20110;-45
2023/06/02 05:53:25;;;;;;;52.40;9.38;;;;;;;28.42;37.86;98422.41;5115235;28;20080;-46
2023/06/02 05:55:51;;;;;;;21.42;5.63;;;;;;;28.68;37.07;98420.41;5096824;28;20062;-45
2023/06/02 05:58:19;;;;;;;12.45;5.13;;;;;;;29.31;35.52;98411.56;5113842;28;20030;-45
2023/06/02 06:00:45;;;;;;;13.50;5.43;;;;;;;29.05;35.46;98417.91;5096791;28;20028;-46
2023/06/02 06:03:13;;;;;;;15.05;5.00;;;;;;;28.90;36.19;98417.75;5115326;28;20088;-45
2023/06/02 06:05:39;;;;;;;14.52;6.50;;;;;;;29.79;35.15;98415.59;5096068;28;20081;-45
2023/06/02 06:08:05;;;;;;;23.98;5.97;;;;;;;30.70;33.24;98408.47;5113672;28;20020;-45
2023/06/02 06:10:31;;;;;;;11.18;5.38;;;;;;;30.73;33.18;98408.56;5114847;28;20446;-45
2023/06/02 06:12:57;;;;;;;16.73;5.78;;;;;;;31.14;32.83;98411.34;5096697;28;20026;-45
2023/06/02 06:15:22;;;;;;;36.60;7.47;;;;;;;31.71;32.09;98401.28;5113422;28;20024;-46
2023/06/02 06:17:52;;;;;;;13.77;5.97;;;;;;;32.26;30.66;98399.59;5113442;28;20072;-45
2023/06/02 06:20:20;;;;;;;24.38;5.53;;;;;;;32.88;30.44;98402.56;5114646;28;20092;-45
2023/06/02 06:22:46;;;;;;;28.83;6.30;;;;;;;33.51;28.96;98401.53;5114896;28;20085;-46
2023/06/02 06:25:12;;;;;;;13.23;5.70;;;;;;;33.97;28.59;98407.03;5079469;28;20035;-46
2023/06/02 06:27:38;;;;;;;26.45;7.47;;;;;;;34.60;28.41;98404.91;5114532;28;20020;-46
2023/06/02 06:30:05;;;;;;;15.88;6.55;;;;;;;34.79;27.80;98409.47;5079374;28;20035;-46
2023/06/02 06:32:31;;;;;;;13.07;5.18;;;;;;;35.43;27.28;98406.00;5096125;28;20027;-46
2023/06/02 06:34:58;;;;;;;13.77;5.45;;;;;;;35.89;26.66;98416.63;5079028;28;20058;-46
2023/06/02 06:37:24;;;;;;;23.45;6.78;;;;;;;36.43;26.08;98412.41;5114312;28;20566;-46
2023/06/02 06:39:49;;;;;;;20.92;5.65;;;;;;;36.97;25.10;98412.75;5113129;28;20106;-46
2023/06/02 06:42:16;;;;;;;22.38;5.50;;;;;;;37.57;24.69;98405.94;5112921;28;20050;-46
2023/06/02 06:44:41;;;;;;;22.48;6.53;;;;;;;37.97;24.06;98404.84;5114193;28;20035;-46
2023/06/02 06:47:07;;;;;;;18.52;5.80;;;;;;;38.21;23.38;98409.94;5112902;28;20016;-46
2023/06/02 06:49:33;;;;;;;15.02;6.05;;;;;;;38.37;23.58;98407.56;5114123;28;20023;-44
2023/06/02 06:51:58;;;;;;;15.30;4.97;;;;;;;38.38;23.41;98411.13;5114120;28;20489;-44
2023/06/02 06:54:25;;;;;;;11.90;5.05;;;;;;;38.46;23.16;98413.44;5113982;28;20040;-44
2023/06/02 06:56:50;;;;;;;21.33;6.65;;;;;;;38.41;23.23;98400.13;5114213;28;20022;-46
2023/06/02 06:59:16;;;;;;;21.75;6.03;;;;;;;38.31;23.01;98409.91;5112630;28;20032;-46
2023/06/02 07:01:43;;;;;;;22.33;6.05;;;;;;;38.23;23.13;98410.31;5113983;28;20023;-46
2023/06/02 07:04:10;;;;;;;22.58;5.82;;;;;;;38.57;23.07;98416.19;5113890;28;20481;-46
2023/06/02 07:06:37;;;;;;;25.52;6.75;;;;;;;39.00;22.45;98418.84;5113738;28;20020;-46
2023/06/02 07:09:03;;;;;;;44.42;7.88;;;;;;;39.17;22.04;98417.19;5113636;28;20070;-46
2023/06/02 07:11:28;;;;;;;34.42;7.07;;;;;;;39.28;21.64;98422.63;5112362;28;20027;-46
2023/06/02 07:13:55;;;;;;;33.50;6.97;;;;;;;39.54;21.37;98416.66;5095271;28;20023;-47
2023/06/02 07:16:21;;;;;;;28.13;6.20;;;;;;;39.11;21.63;98419.56;5113416;28;20027;-46
2023/06/02 07:18:48;;;;;;;64.55;9.15;;;;;;;38.54;22.35;98419.72;5113584;28;20031;-46
2023/06/02 07:21:14;;;;;;;30.38;6.15;;;;;;;38.42;22.41;98418.16;5113372;28;20023;-46
2023/06/02 07:23:39;;;;;;;18.70;4.95;;;;;;;38.27;22.47;98420.09;5095157;28;20032;-46
2023/06/02 07:26:05;;;;;;;33.33;6.28;;;;;;;38.46;22.54;98415.41;5113452;28;20489;-46
2023/06/02 07:28:31;;;;;;;32.60;5.55;;;;;;;38.38;22.63;98414.63;5095051;28;20024;-46
2023/06/02 07:30:57;;;;;;;26.08;5.85;;;;;;;38.43;22.50;98414.22;5112021;28;20031;-47
2023/06/02 07:33:23;;;;;;;47.67;6.88;;;;;;;38.38;22.70;98425.59;5111997;28;20030;-46
2023/06/02 07:35:48;;;;;;;15.13;4.88;;;;;;;38.33;22.42;98413.06;5112881;28;20412;-46
2023/06/02 07:38:14;;;;;;;27.58;6.22;;;;;;;37.77;22.86;98425.53;5094933;28;20439;-47
2023/06/02 07:40:40;;;;;;;18.80;5.50;;;;;;;37.25;23.78;98422.25;5112101;28;20122;-47
2023/06/02 07:43:05;;;;;;;10.38;5.15;;;;;;;37.22;23.81;98418.34;5113119;28;20059;-47
2023/06/02 07:45:31;;;;;;;23.42;5.53;;;;;;;37.36;23.15;98418.38;5111740;28;20469;-46
2023/06/02 07:47:57;;;;;;;7.38;4.45;;;;;;;37.58;22.80;98413.78;5111697;28;20030;-46
2023/06/02 07:50:23;;;;;;;18.73;5.85;;;;;;;38.02;22.44;98420.09;5094569;28;20030;-47
2023/06/02 07:52:49;;;;;;;10.35;4.72;;;;;;;38.63;22.26;98422.81;5112938;28;20023;-46
2023/06/02 07:55:15;;;;;;;15.65;5.45;;;;;;;38.68;21.99;98414.22;5094499;28;20027;-46
2023/06/02 07:57:41;;;;;;;30.98;5.50;;;;;;;39.21;21.56;98406.97;5111494;28;20088;-46
2023/06/02 08:00:17;;;;;;;20.83;4.78;;;;;;;40.09;20.52;98411.56;5112774;28;20020;-46
2023/06/02 08:02:46;;;;;;;12.50;4.90;;;;;;;40.77;19.69;98416.47;5112838;28;20055;-49
2023/06/02 08:05:18;;;;;;;22.17;8.85;;;;;;;41.19;19.34;98408.09;5112681;28;20099;-49
2023/06/02 08:07:45;;;;;;;22.40;5.88;;;;;;;41.16;19.22;98404.19;5094387;28;20464;-49
2023/06/02 08:10:11;;;;;;;37.45;12.32;;;;;;;41.03;19.50;98406.72;5111525;28;20512;-49
2023/06/02 08:12:38;;;;;;;24.67;6.25;;;;;;;40.85;19.50;98406.13;5112595;28;20031;-49
2023/06/02 08:15:04;;;;;;;23.90;5.90;;;;;;;41.26;18.96;98399.75;5112415;28;20031;-49
2023/06/02 08:17:30;;;;;;;17.35;6.00;;;;;;;41.95;18.19;98399.53;5111239;28;20141;-49
2023/06/02 08:20:00;;;;;;;9.82;4.20;;;;;;;42.40;18.01;98402.72;5111120;28;20118;-49
2023/06/02 08:22:27;;;;;;;15.27;4.25;;;;;;;43.07;16.93;98399.09;5111072;28;20027;-49
2023/06/02 08:24:56;;;;;;;13.48;4.53;;;;;;;43.39;16.57;98401.19;5094140;28;20035;-49
2023/06/02 08:27:23;;;;;;;8.25;3.25;;;;;;;43.43;16.56;98390.06;5111883;28;20623;-49
2023/06/02 08:29:50;;;;;;;21.63;4.72;;;;;;;43.25;16.50;98387.66;5094458;28;20061;-49
2023/06/02 08:32:17;;;;;;;33.75;7.25;;;;;;;43.22;16.68;98388.50;5112243;28;20031;-49
2023/06/02 08:34:47;;;;;;;9.35;3.70;;;;;;;43.08;17.24;98379.34;5111985;28;20130;-49
2023/06/02 08:37:16;;;;;;;11.15;3.95;;;;;;;42.92;16.94;98384.03;5112731;28;20012;-49
2023/06/02 08:39:46;;;;;;;40.53;5.03;;;;;;;43.26;16.64;98381.72;5093894;28;20497;-49
2023/06/02 08:42:12;;;;;;;21.95;5.68;;;;;;;43.68;16.30;98381.19;5093852;28;20032;-49
2023/06/02 08:44:40;;;;;;;14.98;4.97;;;;;;;43.92;16.16;98378.25;5093910;28;20126;-49
2023/06/02 08:47:10;;;;;;;10.95;3.97;;;;;;;43.49;16.74;98382.81;5112007;28;20030;-49
2023/06/02 08:49:40;;;;;;;13.95;4.38;;;;;;;43.29;16.50;98374.56;5112408;28;20077;-49
2023/06/02 08:52:11;;;;;;;28.48;8.05;;;;;;;43.42;16.88;98380.19;5112081;28;20019;-49
2023/06/02 08:54:42;;;;;;;21.15;5.95;;;;;;;43.05;17.04;98371.91;5093776;28;20035;-49
2023/06/02 08:57:09;;;;;;;31.80;6.40;;;;;;;42.98;17.05;98374.81;5112103;28;20024;-49
2023/06/02 08:59:36;;;;;;;8.27;3.90;;;;;;;43.03;17.02;98374.31;5094083;28;20396;-49
2023/06/02 09:02:02;;;;;;;75.97;14.25;;;;;;;43.29;16.65;98374.56;5111911;28;20034;-49
2023/06/02 09:04:28;;;;;;;31.05;6.43;;;;;;;43.33;16.63;98369.75;5111951;28;20031;-50
2023/06/02 09:07:11;;;;;;;46.05;9.40;;;;;;;43.33;17.38;98366.97;5111978;28;20440;-50
2023/06/02 09:09:46;;;;;;;31.58;6.18;;;;;;;43.56;16.72;98368.03;5111936;28;20035;-49
2023/06/02 09:12:12;;;;;;;26.33;5.05;;;;;;;43.48;16.59;98370.19;5111874;28;20102;-49
2023/06/02 09:14:39;;;;;;;8.77;4.15;;;;;;;43.53;16.65;98366.91;5112043;28;20019;-49
2023/06/02 09:17:25;;;;;;;17.75;4.55;;;;;;;43.55;16.42;98369.22;5111749;28;20019;-49
2023/06/02 09:19:52;;;;;;;18.92;4.93;;;;;;;43.63;16.75;98365.09;5111855;28;20089;-49
2023/06/02 09:22:18;;;;;;;19.27;5.13;;;;;;;43.37;16.48;98375.19;5110484;28;20028;-49
2023/06/02 09:24:44;;;;;;;22.40;5.25;;;;;;;43.22;17.01;98369.16;5111862;28;20023;-49
2023/06/02 09:27:15;;;;;;;167.75;12.65;;;;;;;43.46;16.56;98376.13;5111751;28;20030;-49
2023/06/02 09:29:41;;;;;;;160.60;13.02;;;;;;;43.64;16.32;98369.41;5111798;28;20024;-49
2023/06/02 09:32:17;;;;;;;239.13;18.15;;;;;;;43.38;17.00;98376.75;5093702;28;20030;-49
2023/06/02 09:34:45;;;;;;;290.75;18.20;;;;;;;43.33;16.93;98368.94;5085972;28;20036;-49
2023/06/02 09:37:19;;;;;;;417.88;27.55;;;;;;;42.92;17.41;98364.69;5073112;28;20038;-49
2023/06/02 09:39:53;;;;;;;;;;;;;;;42.86;17.39;98364.41;5075144;28;20493;-49
2023/06/02 09:42:23;;;;;;;129.15;11.07;;;;;;;42.89;17.68;98366.34;5094949;28;19919;-49
2023/06/02 09:45:04;;;;;;;80.05;8.35;;;;;;;43.48;17.37;98361.88;5095040;28;20508;-49
2023/06/02 09:47:42;;;;;;;40.42;5.85;;;;;;;43.88;16.48;98356.22;5095026;28;20516;-49
2023/06/02 09:50:09;;;;;;;49.08;7.30;;;;;;;44.01;16.10;98376.44;5076723;28;20054;-49
2023/06/02 09:52:35;;;;;;;14.65;4.22;;;;;;;43.44;16.90;98359.19;5094868;28;20076;-50
2023/06/02 09:55:01;;;;;;;28.27;8.02;;;;;;;43.48;16.66;98361.88;5094712;28;20580;-49
2023/06/02 09:57:28;;;;;;;14.05;4.20;;;;;;;43.22;16.87;98363.63;5095120;28;20031;-50
2023/06/02 09:59:58;;;;;;;19.73;5.30;;;;;;;43.23;16.61;98357.69;5094709;28;20027;-49
2023/06/02 10:02:24;;;;;;;18.05;5.82;;;;;;;43.18;16.67;98363.72;5094660;28;20016;-49
2023/06/02 10:04:49;;;;;;;15.25;4.75;;;;;;;43.03;16.49;98357.75;5076463;28;20032;-49
2023/06/02 10:07:27;;;;;;;14.05;4.00;;;;;;;43.09;17.01;98356.03;5093248;28;20024;-49
2023/06/02 10:10:10;;;;;;;13.52;3.90;;;;;;;43.55;16.55;98358.16;5076637;28;20426;-50
2023/06/02 10:12:54;;;;;;;7.78;4.13;;;;;;;43.63;16.78;98348.53;5076344;28;20103;-49
2023/06/02 10:16:00;;;;;;;14.15;4.60;;;;;;;43.32;16.97;98348.84;5076171;28;20088;-49
2023/06/02 10:18:45;;;;;;;11.30;4.38;;;;;;;43.19;16.62;98342.41;5094414;28;20032;-49
2023/06/02 10:21:37;;;;;;;13.73;4.00;;;;;;;42.93;16.76;98347.72;5094213;28;20059;-49
2023/06/02 10:24:28;;;;;;;10.80;4.47;;;;;;;43.05;16.74;98344.28;5094265;28;20047;-49
2023/06/02 10:27:18;;;;;;;12.25;5.50;;;;;;;43.42;16.59;98338.75;5094247;28;20074;-49
2023/06/02 10:29:45;;;;;;;9.45;4.63;;;;;;;43.62;16.11;98350.50;5094232;28;20024;-49
2023/06/02 10:32:24;;;;;;;13.48;4.40;;;;;;;43.78;15.90;98340.66;5094112;28;20490;-49
2023/06/02 10:34:54;;;;;;;6.50;3.92;;;;;;;43.60;16.01;98341.84;5079815;28;20108;-50
2023/06/02 10:37:21;;;;;;;8.43;3.97;;;;;;;43.38;16.48;98338.81;5114038;28;20054;-49
2023/06/02 10:39:51;;;;;;;9.15;4.45;;;;;;;43.22;16.16;98342.31;5113402;28;20032;-49
2023/06/02 10:42:23;;;;;;;10.93;4.80;;;;;;;43.09;16.76;98344.22;5114290;28;20019;-49
2023/06/02 10:44:49;;;;;;;6.03;4.25;;;;;;;43.09;16.76;98335.94;5096163;28;20408;-49
2023/06/02 10:47:17;;;;;;;7.20;4.50;;;;;;;43.04;16.29;98336.41;5114217;28;20072;-49
2023/06/02 10:50:02;;;;;;;12.70;6.28;;;;;;;42.90;16.87;98337.50;5114145;28;20058;-49
2023/06/02 10:52:32;;;;;;;11.15;5.20;;;;;;;43.17;16.39;98339.31;5114166;28;20493;-49
2023/06/02 10:55:07;;;;;;;12.93;6.63;;;;;;;43.39;16.40;98334.88;5114046;28;20108;-49
2023/06/02 10:57:51;;;;;;;18.67;8.35;;;;;;;43.46;16.19;98331.91;5114037;28;20524;-49
2023/06/02 11:00:43;;;;;;;13.70;7.05;;;;;;;43.66;16.05;98331.06;5095850;28;20028;-50
2023/06/02 11:03:17;;;;;;;9.10;4.47;;;;;;;43.67;15.86;98327.13;5100288;28;20054;-50
2023/06/02 11:05:45;;;;;;;14.25;7.07;;;;;;;43.02;16.00;98323.03;5113781;28;20485;-49
2023/06/02 11:08:23;;;;;;;20.35;5.57;;;;;;;42.42;16.46;98325.03;5113805;28;20107;-50
2023/06/02 11:10:50;;;;;;;17.88;6.03;;;;;;;42.19;16.99;98317.59;5113784;28;20554;-49
2023/06/02 11:13:17;;;;;;;14.63;5.00;;;;;;;42.42;16.64;98314.00;5112387;28;20023;-49
2023/06/02 11:15:56;;;;;;;8.85;4.65;;;;;;;42.58;16.49;98321.59;5095195;28;20053;-49
2023/06/02 11:18:22;;;;;;;18.65;4.65;;;;;;;42.63;16.20;98313.59;5113635;28;20035;-49
2023/06/02 11:20:52;;;;;;;20.38;6.78;;;;;;;42.86;16.13;98311.97;5113765;28;20075;-50
2023/06/02 11:23:18;;;;;;;18.80;5.47;;;;;;;42.94;15.93;98307.06;5113883;28;20497;-50
2023/06/02 11:25:45;;;;;;;21.65;7.15;;;;;;;42.98;15.86;98305.78;5112166;28;20115;-50
2023/06/02 11:28:23;;;;;;;16.15;5.45;;;;;;;42.67;15.98;98294.22;5113346;28;20028;-50
2023/06/02 11:31:05;;;;;;;26.20;5.93;;;;;;;42.52;16.10;98290.94;5095139;28;20404;-49